Time;durP1;ratioP1;P1;durP2;ratioP2;P2;SDS_P1;SDS_P2;PMS_P1;PMS_P2;Temp;Humidity;BMP_temperature;BMP_pressure;BME280_temperature;BME280_humidity;BME280_pressure;Samples;Min_cycle;Max_cycle;Signal;HPM_P1;HPM_P2
2023/03/11 00:00:41;;;;;;;0.70;0.70;;;3.70;99.90;;;;;;5071080;28;20575;-79
2023/03/11 00:03:09;;;;;;;0.70;0.50;;;3.70;99.90;;;;;;5070432;28;20866;-79
2023/03/11 00:05:40;;;;;;;1.00;0.70;;;3.70;99.90;;;;;;5074100;28;20446;-78
2023/03/11 00:08:08;;;;;;;1.63;0.70;;;3.60;99.90;;;;;;5074321;28;20433;-78
2023/03/11 00:10:37;;;;;;;0.73;0.60;;;3.60;99.90;;;;;;5075057;28;20437;-79
2023/03/11 00:13:05;;;;;;;1.27;0.80;;;3.50;99.90;;;;;;5074415;28;20445;-79
2023/03/11 00:15:33;;;;;;;0.77;0.67;;;3.50;99.90;;;;;;5074162;28;20488;-79
2023/03/11 00:18:00;;;;;;;0.60;0.50;;;3.60;99.90;;;;;;5074057;28;20455;-79
2023/03/11 00:20:30;;;;;;;1.53;0.80;;;3.60;99.90;;;;;;5074650;28;20786;-79
2023/03/11 00:22:59;;;;;;;0.70;0.60;;;3.70;99.90;;;;;;5073895;28;20440;-79
2023/03/11 00:25:29;;;;;;;0.70;0.70;;;3.60;99.90;;;;;;5074397;28;20449;-79
2023/03/11 00:27:56;;;;;;;0.60;0.40;;;3.60;99.90;;;;;;5074319;28;20443;-78
2023/03/11 00:30:24;;;;;;;0.63;0.43;;;3.60;99.90;;;;;;5074744;28;20440;-79
2023/03/11 00:32:53;;;;;;;0.70;0.50;;;3.70;99.90;;;;;;5073950;28;20433;-79
2023/03/11 00:35:21;;;;;;;1.27;0.70;;;3.70;99.90;;;;;;5073852;28;20800;-80
2023/03/11 00:37:48;;;;;;;1.00;0.80;;;3.70;99.90;;;;;;5073495;28;20457;-70
2023/03/11 00:40:19;;;;;;;0.77;0.77;;;3.80;99.90;;;;;;5074548;28;20732;-79
2023/03/11 00:42:46;;;;;;;4.27;1.70;;;3.80;99.90;;;;;;5074454;28;20444;-79
2023/03/11 00:45:14;;;;;;;0.70;0.60;;;3.70;99.90;;;;;;5073729;28;20576;-77
2023/03/11 00:47:41;;;;;;;1.70;1.53;;;3.80;99.90;;;;;;5073829;28;20785;-80
2023/03/11 00:50:11;;;;;;;0.80;0.60;;;3.90;99.90;;;;;;5073548;28;20806;-81
2023/03/11 00:52:38;;;;;;;0.70;0.50;;;4.00;99.90;;;;;;5074027;28;20613;-80
2023/03/11 00:55:05;;;;;;;1.27;0.70;;;4.30;99.90;;;;;;5073139;28;20518;-80
2023/03/11 00:57:33;;;;;;;1.07;0.80;;;4.30;99.90;;;;;;5073823;28;20440;-80
2023/03/11 01:00:00;;;;;;;1.43;0.60;;;4.00;99.90;;;;;;5072916;28;20452;-80
2023/03/11 01:02:27;;;;;;;1.50;0.93;;;4.00;99.90;;;;;;5073748;28;20452;-80
2023/03/11 01:04:54;;;;;;;0.60;0.57;;;4.00;99.90;;;;;;5072297;28;20457;-80
2023/03/11 01:07:21;;;;;;;0.93;0.67;;;3.90;99.90;;;;;;5071758;28;20498;-80
2023/03/11 01:09:48;;;;;;;0.80;0.77;;;3.80;99.90;;;;;;5072929;28;20446;-72
2023/03/11 01:12:15;;;;;;;2.90;0.80;;;3.90;99.90;;;;;;5073551;28;20453;-80
2023/03/11 01:14:43;;;;;;;0.70;0.50;;;3.80;99.90;;;;;;5073212;28;20449;-81
2023/03/11 01:17:10;;;;;;;0.90;0.73;;;3.90;99.90;;;;;;5072300;28;20492;-81
2023/03/11 01:19:37;;;;;;;1.03;0.57;;;3.90;1.00;;;;;;5073570;28;20438;-81
2023/03/11 01:22:04;;;;;;;0.70;0.60;;;3.80;1.00;;;;;;5072876;28;20445;-81
2023/03/11 01:24:31;;;;;;;1.90;0.70;;;3.90;1.00;;;;;;5072883;28;20438;-81
2023/03/11 01:26:58;;;;;;;1.57;0.67;;;3.70;1.00;;;;;;5072858;28;20442;-81
2023/03/11 01:29:24;;;;;;;1.00;0.80;;;3.60;1.00;;;;;;5072941;28;20438;-81
2023/03/11 01:31:52;;;;;;;0.93;0.70;;;3.50;1.00;;;;;;5072950;28;20809;-81
2023/03/11 01:34:19;;;;;;;3.53;0.60;;;3.50;1.00;;;;;;5073013;28;20437;-81
2023/03/11 01:36:46;;;;;;;0.80;0.60;;;3.40;1.00;;;;;;5072936;28;20476;-81
2023/03/11 01:39:13;;;;;;;1.17;0.70;;;3.40;99.90;;;;;;5073202;28;20437;-80
2023/03/11 01:41:40;;;;;;;0.90;0.80;;;3.30;99.90;;;;;;5073131;28;20442;-80
2023/03/11 01:44:07;;;;;;;1.33;0.70;;;3.20;1.00;;;;;;5071837;28;20451;-81
2023/03/11 01:46:37;;;;;;;0.73;0.50;;;3.20;1.00;;;;;;5073220;28;20473;-81
2023/03/11 01:49:11;;;;;;;1.43;1.07;;;3.10;1.00;;;;;;5072323;28;20438;-81
2023/03/11 01:51:42;;;;;;;0.83;0.83;;;3.00;99.90;;;;;;5072913;28;20453;-81
2023/03/11 01:54:12;;;;;;;1.00;0.80;;;3.10;1.00;;;;;;5072001;28;20762;-81
2023/03/11 01:56:41;;;;;;;2.57;1.10;;;3.10;99.90;;;;;;5072431;28;20481;-81
2023/03/11 01:59:08;;;;;;;0.90;0.60;;;3.10;99.90;;;;;;5072014;28;20767;-81
2023/03/11 02:01:41;;;;;;;0.80;0.60;;;3.10;99.90;;;;;;5072268;28;20441;-81
2023/03/11 02:04:10;;;;;;;0.90;0.70;;;3.00;99.90;;;;;;5071921;28;20464;-82
2023/03/11 02:06:37;;;;;;;0.70;0.60;;;3.20;99.90;;;;;;5072425;28;20787;-81
2023/03/11 02:09:04;;;;;;;0.70;0.60;;;3.20;99.90;;;;;;5072036;28;20456;-82
2023/03/11 02:11:31;;;;;;;0.70;0.53;;;3.20;99.90;;;;;;5072139;28;20449;-81
2023/03/11 02:14:01;;;;;;;1.20;1.10;;;3.10;99.90;;;;;;5071954;28;20445;-77
2023/03/11 02:16:28;;;;;;;0.80;0.70;;;3.10;99.90;;;;;;5071958;28;20484;-81
2023/03/11 02:18:56;;;;;;;0.90;0.70;;;3.10;99.90;;;;;;5071599;28;20452;-81
2023/03/11 02:21:27;;;;;;;0.90;0.80;;;3.10;99.90;;;;;;5072123;28;20444;-81
2023/03/11 02:24:02;;;;;;;0.80;0.70;;;2.90;99.90;;;;;;5071903;28;20449;-81
2023/03/11 02:26:34;;;;;;;1.23;0.70;;;2.90;99.90;;;;;;5072484;28;20452;-80
2023/03/11 02:29:06;;;;;;;0.87;0.70;;;2.80;99.90;;;;;;5071036;28;20430;-82
2023/03/11 02:31:34;;;;;;;1.13;0.70;;;2.80;99.90;;;;;;5059276;28;20438;-82
2023/03/11 02:34:03;;;;;;;0.93;0.70;;;2.90;99.90;;;;;;5071555;28;20445;-81
2023/03/11 02:36:32;;;;;;;0.87;0.57;;;2.80;99.90;;;;;;5075073;28;20479;-82
2023/03/11 02:38:59;;;;;;;1.23;1.13;;;2.60;99.90;;;;;;5075826;28;20448;-81
2023/03/11 02:41:27;;;;;;;0.97;0.50;;;2.60;99.90;;;;;;5088164;28;20456;-81
2023/03/11 02:43:55;;;;;;;1.00;0.70;;;2.60;99.90;;;;;;5085620;28;20442;-80
2023/03/11 02:46:23;;;;;;;1.23;1.13;;;2.50;99.90;;;;;;5085673;28;20486;-80
2023/03/11 02:48:51;;;;;;;1.00;0.70;;;2.40;99.90;;;;;;5082881;28;20445;-81
2023/03/11 02:51:18;;;;;;;0.70;0.60;;;2.60;99.90;;;;;;5080933;28;20441;-73
2023/03/11 02:53:48;;;;;;;7.50;1.13;;;2.70;99.90;;;;;;5076013;28;20500;-81
2023/03/11 02:56:15;;;;;;;0.80;0.70;;;2.40;99.90;;;;;;5071867;28;20480;-81
2023/03/11 02:58:42;;;;;;;1.53;0.87;;;2.50;99.90;;;;;;5071952;28;20437;-81
2023/03/11 03:01:09;;;;;;;7.57;1.27;;;2.40;99.90;;;;;;5071362;28;20449;-81
2023/03/11 03:03:38;;;;;;;1.07;0.70;;;2.50;99.90;;;;;;5071309;28;20908;-82
2023/03/11 03:06:05;;;;;;;2.67;0.90;;;2.50;99.90;;;;;;5070260;28;20442;-81
2023/03/11 03:08:32;;;;;;;0.70;0.50;;;2.60;99.90;;;;;;5071211;28;20433;-81
2023/03/11 03:11:00;;;;;;;0.70;0.50;;;2.40;99.90;;;;;;5070960;28;20456;-81
2023/03/11 03:13:26;;;;;;;1.13;0.80;;;2.60;99.90;;;;;;5071205;28;20480;-82
2023/03/11 03:15:53;;;;;;;0.93;0.50;;;2.20;99.90;;;;;;5070351;28;20446;-80
2023/03/11 03:18:20;;;;;;;0.70;0.60;;;2.30;99.90;;;;;;5071071;28;20452;-81
2023/03/11 03:20:48;;;;;;;0.80;0.50;;;2.10;99.90;;;;;;5071110;28;20771;-81
2023/03/11 03:23:15;;;;;;;1.73;0.50;;;2.00;99.90;;;;;;5070904;28;20440;-81
2023/03/11 03:25:43;;;;;;;0.90;0.50;;;2.20;99.90;;;;;;5070400;28;20438;-81
2023/03/11 03:28:10;;;;;;;0.87;0.53;;;2.10;99.90;;;;;;5070163;28;20503;-82
2023/03/11 03:30:37;;;;;;;3.33;0.80;;;2.10;99.90;;;;;;5071262;28;20516;-81
2023/03/11 03:33:05;;;;;;;1.07;0.60;;;2.10;99.90;;;;;;5070506;28;20441;-82
2023/03/11 03:35:32;;;;;;;0.80;0.60;;;2.10;99.90;;;;;;5070608;28;20476;-82
2023/03/11 03:38:01;;;;;;;0.70;0.60;;;2.30;99.90;;;;;;5076598;28;20489;-81
2023/03/11 03:40:28;;;;;;;0.80;0.70;;;2.20;99.90;;;;;;5070625;28;20448;-81
2023/03/11 03:42:55;;;;;;;0.90;0.60;;;2.40;99.90;;;;;;5070141;28;20438;-81
2023/03/11 03:45:21;;;;;;;1.07;0.80;;;2.10;99.90;;;;;;5070463;28;20815;-82
2023/03/11 03:47:48;;;;;;;1.33;0.60;;;1.90;99.90;;;;;;5070431;28;20470;-73
2023/03/11 03:50:15;;;;;;;0.80;0.60;;;1.90;99.90;;;;;;5070932;28;20444;-79
2023/03/11 03:52:42;;;;;;;0.90;0.60;;;2.10;99.90;;;;;;5070932;28;20446;-82
2023/03/11 03:55:11;;;;;;;2.23;1.27;;;1.80;99.90;;;;;;5070244;28;20445;-82
2023/03/11 03:57:37;;;;;;;0.60;0.50;;;1.80;1.00;;;;;;5070937;28;20910;-81
2023/03/11 04:00:07;;;;;;;0.67;0.57;;;2.20;99.90;;;;;;5070383;28;20445;-82
2023/03/11 04:02:34;;;;;;;0.80;0.70;;;2.00;99.90;;;;;;5070832;28;20542;-80
2023/03/11 04:05:01;;;;;;;2.10;0.70;;;1.80;1.00;;;;;;5069846;28;20433;-82
2023/03/11 04:07:28;;;;;;;0.60;0.47;;;1.70;1.00;;;;;;5070724;28;20448;-81
2023/03/11 04:09:55;;;;;;;0.93;0.50;;;1.80;1.00;;;;;;5063301;28;20453;-81
2023/03/11 04:12:23;;;;;;;2.50;1.17;;;1.70;1.00;;;;;;5070709;28;20867;-81
2023/03/11 04:14:50;;;;;;;1.07;0.70;;;1.70;1.00;;;;;;5069457;28;20464;-81
2023/03/11 04:17:17;;;;;;;0.70;0.60;;;1.60;1.00;;;;;;5070780;28;20816;-81
2023/03/11 04:19:44;;;;;;;1.53;0.70;;;1.50;1.00;;;;;;5070754;28;20792;-80
2023/03/11 04:22:11;;;;;;;1.67;0.47;;;1.60;1.00;;;;;;5070014;28;20783;-82
2023/03/11 04:24:38;;;;;;;0.70;0.60;;;1.80;1.00;;;;;;5069944;28;20445;-80
2023/03/11 04:27:05;;;;;;;1.33;0.63;;;1.60;1.00;;;;;;5070005;28;20441;-81
2023/03/11 04:29:33;;;;;;;1.30;0.47;;;1.70;1.00;;;;;;5069551;28;20956;-81
2023/03/11 04:32:00;;;;;;;0.70;0.70;;;1.60;1.00;;;;;;5069560;28;20449;-81
2023/03/11 04:34:26;;;;;;;0.70;0.50;;;1.60;1.00;;;;;;5069667;28;20442;-81
2023/03/11 04:36:53;;;;;;;0.60;0.50;;;1.70;1.00;;;;;;5069201;28;20583;-81
2023/03/11 04:39:20;;;;;;;3.37;0.90;;;1.50;1.00;;;;;;5070302;28;20443;-81
2023/03/11 04:41:47;;;;;;;1.87;1.20;;;1.70;1.00;;;;;;5070215;28;20448;-70
2023/03/11 04:44:14;;;;;;;4.20;0.83;;;1.50;1.00;;;;;;5069877;28;20460;-79
2023/03/11 04:46:43;;;;;;;0.70;0.50;;;1.50;1.00;;;;;;5070423;28;20468;-81
2023/03/11 04:49:09;;;;;;;0.60;0.50;;;1.40;1.00;;;;;;5069815;28;20437;-81
2023/03/11 04:51:36;;;;;;;0.90;0.77;;;1.40;1.00;;;;;;5072110;28;20445;-80
2023/03/11 04:54:03;;;;;;;0.77;0.60;;;1.60;1.00;;;;;;5072868;28;20559;-80
2023/03/11 04:56:30;;;;;;;0.60;0.40;;;1.50;1.00;;;;;;5073945;28;20449;-80
2023/03/11 04:58:57;;;;;;;0.80;0.57;;;1.50;1.00;;;;;;5073335;28;20472;-80
2023/03/11 05:01:24;;;;;;;0.60;0.40;;;1.60;1.00;;;;;;5073356;28;20433;-80
2023/03/11 05:03:52;;;;;;;0.70;0.50;;;1.80;1.00;;;;;;5072439;28;20497;-78
2023/03/11 05:06:19;;;;;;;3.20;1.90;;;1.60;1.00;;;;;;5073395;28;20445;-80
2023/03/11 05:08:46;;;;;;;3.37;1.17;;;1.90;1.00;;;;;;5073597;28;20457;-80
2023/03/11 05:11:13;;;;;;;0.67;0.53;;;1.70;1.00;;;;;;5073914;28;20446;-81
2023/03/11 05:13:39;;;;;;;0.70;0.50;;;1.50;1.00;;;;;;5073536;28;20801;-80
2023/03/11 05:16:07;;;;;;;0.90;0.60;;;1.20;99.90;;;;;;5072871;28;20445;-80
2023/03/11 05:18:34;;;;;;;0.87;0.57;;;1.10;99.90;;;;;;5073548;28;20826;-81
2023/03/11 05:21:02;;;;;;;0.70;0.57;;;1.20;99.90;;;;;;5072776;28;20551;-80
2023/03/11 05:23:29;;;;;;;1.20;0.73;;;1.10;99.90;;;;;;5073539;28;20770;-80
2023/03/11 05:25:55;;;;;;;2.30;0.70;;;1.10;99.90;;;;;;5072213;28;20441;-79
2023/03/11 05:28:22;;;;;;;1.13;0.60;;;1.20;99.90;;;;;;5073487;28;20441;-80
2023/03/11 05:30:49;;;;;;;2.43;2.10;;;1.40;84.60;;;;;;5072590;28;20444;-79
2023/03/11 05:33:16;;;;;;;0.70;0.50;;;1.40;1.00;;;;;;5073248;28;20441;-79
2023/03/11 05:35:43;;;;;;;0.67;0.47;;;1.50;77.70;;;;;;5072737;28;20452;-79
2023/03/11 05:38:11;;;;;;;1.10;0.50;;;1.60;1.00;;;;;;5072230;28;20473;-79
2023/03/11 05:40:38;;;;;;;0.87;0.60;;;1.60;1.00;;;;;;5072877;28;20472;-79
2023/03/11 05:43:04;;;;;;;1.17;0.93;;;1.60;1.00;;;;;;5072290;28;20444;-80
2023/03/11 05:45:31;;;;;;;1.00;0.83;;;1.70;1.00;;;;;;5072404;28;20468;-81
2023/03/11 05:47:58;;;;;;;5.90;0.80;;;1.70;1.00;;;;;;5072298;28;20445;-81
2023/03/11 05:50:25;;;;;;;1.47;0.63;;;1.70;1.00;;;;;;5072585;28;20441;-80
2023/03/11 05:52:52;;;;;;;3.03;1.47;;;1.50;1.00;;;;;;5072345;28;20452;-80
2023/03/11 05:55:20;;;;;;;1.00;0.90;;;1.40;1.00;;;;;;5072167;28;20442;-78
2023/03/11 05:57:47;;;;;;;0.60;0.40;;;1.50;1.00;;;;;;5072711;28;20499;-80
2023/03/11 06:00:14;;;;;;;0.60;0.50;;;1.40;99.90;;;;;;5073119;28;20440;-78
2023/03/11 06:02:41;;;;;;;1.73;0.93;;;1.30;99.90;;;;;;5073401;28;20603;-80
2023/03/11 06:05:09;;;;;;;1.40;0.80;;;1.40;99.90;;;;;;5072332;28;20453;-81
2023/03/11 06:07:36;;;;;;;1.00;0.90;;;1.30;99.90;;;;;;5074933;28;20442;-81
2023/03/11 06:10:04;;;;;;;1.30;0.70;;;1.40;99.90;;;;;;5085239;28;20463;-80
2023/03/11 06:12:34;;;;;;;0.90;0.90;;;1.40;99.90;;;;;;5084216;28;20445;-79
2023/03/11 06:15:00;;;;;;;5.70;0.77;;;1.40;99.90;;;;;;5087910;28;20446;-80
2023/03/11 06:17:27;;;;;;;1.10;0.70;;;1.30;99.90;;;;;;5088620;28;20544;-80
2023/03/11 06:19:54;;;;;;;1.13;1.00;;;1.20;99.90;;;;;;5086320;28;20448;-80
2023/03/11 06:22:21;;;;;;;9.60;1.33;;;1.20;99.90;;;;;;5085141;28;20448;-79
2023/03/11 06:24:48;;;;;;;2.57;1.23;;;1.10;99.90;;;;;;5081683;28;20494;-69
2023/03/11 06:27:15;;;;;;;0.70;0.50;;;1.10;99.90;;;;;;5076318;28;20456;-78
2023/03/11 06:29:43;;;;;;;0.90;0.70;;;1.10;99.90;;;;;;5075588;28;20455;-78
2023/03/11 06:32:10;;;;;;;2.07;0.60;;;1.10;99.90;;;;;;5072271;28;20469;-79
2023/03/11 06:34:37;;;;;;;3.13;1.00;;;1.10;99.90;;;;;;5072096;28;20468;-80
2023/03/11 06:37:04;;;;;;;0.80;0.80;;;1.20;99.90;;;;;;5071646;28;20444;-81
2023/03/11 06:39:31;;;;;;;2.77;2.10;;;1.30;99.90;;;;;;5075786;28;20447;-80
2023/03/11 06:41:57;;;;;;;1.20;0.70;;;1.60;37.10;;;;;;5071822;28;20441;-80
2023/03/11 06:44:24;;;;;;;0.80;0.57;;;1.70;1.00;;;;;;5071136;28;20459;-80
2023/03/11 06:46:52;;;;;;;1.47;0.70;;;1.70;1.00;;;;;;5069353;28;20446;-81
2023/03/11 06:49:19;;;;;;;1.03;0.60;;;1.60;1.00;;;;;;5071608;28;20437;-80
2023/03/11 06:51:46;;;;;;;1.00;0.70;;;1.60;1.00;;;;;;5071637;28;20453;-81
2023/03/11 06:54:13;;;;;;;1.37;0.53;;;1.60;1.00;;;;;;5071495;28;20449;-81
2023/03/11 06:56:40;;;;;;;0.70;0.60;;;1.70;1.00;;;;;;5072066;28;20443;-82
2023/03/11 06:59:07;;;;;;;0.70;0.60;;;1.60;1.00;;;;;;5070577;28;20482;-81
2023/03/11 07:01:33;;;;;;;0.80;0.63;;;1.70;1.00;;;;;;5058782;28;20478;-86
2023/03/11 07:04:01;;;;;;;1.10;1.00;;;1.60;1.00;;;;;;5071095;28;20437;-86
2023/03/11 07:06:29;;;;;;;0.60;0.50;;;1.60;1.00;;;;;;5072336;28;20438;-86
2023/03/11 07:08:55;;;;;;;1.50;1.40;;;1.70;1.00;;;;;;5071718;28;20446;-85
2023/03/11 07:11:24;;;;;;;0.67;0.57;;;1.80;1.00;;;;;;5071756;28;20449;-85
2023/03/11 07:13:51;;;;;;;1.03;0.60;;;1.70;1.00;;;;;;5070012;28;20452;-83
2023/03/11 07:16:20;;;;;;;2.03;0.90;;;1.70;1.00;;;;;;5071552;28;20444;-77
2023/03/11 07:18:48;;;;;;;0.73;0.57;;;2.10;1.00;;;;;;5070994;28;20462;-83
2023/03/11 07:21:18;;;;;;;1.13;0.90;;;1.90;1.00;;;;;;5071455;28;20449;-83
2023/03/11 07:23:45;;;;;;;1.70;0.70;;;1.90;1.00;;;;;;5071854;28;20440;-82
2023/03/11 07:26:14;;;;;;;7.40;0.90;;;2.00;1.00;;;;;;5071354;28;20456;-84
2023/03/11 07:28:41;;;;;;;3.53;1.33;;;2.00;1.00;;;;;;5071644;28;20445;-83
2023/03/11 07:31:09;;;;;;;0.80;0.70;;;2.00;1.00;;;;;;5070947;28;20750;-83
2023/03/11 07:33:37;;;;;;;2.03;0.60;;;2.00;1.00;;;;;;5071194;28;20441;-84
2023/03/11 07:36:08;;;;;;;3.07;0.87;;;2.10;99.90;;;;;;5071345;28;20445;-84
2023/03/11 07:38:37;;;;;;;1.53;1.00;;;2.40;1.00;;;;;;5071564;28;20481;-83
2023/03/11 07:41:04;;;;;;;1.00;0.60;;;2.40;99.90;;;;;;5070505;28;20453;-84
2023/03/11 07:43:32;;;;;;;0.67;0.50;;;2.20;99.90;;;;;;5071244;28;20448;-84
2023/03/11 07:46:06;;;;;;;3.43;1.47;;;2.20;99.90;;;;;;5070908;28;20487;-84
2023/03/11 07:48:33;;;;;;;1.00;0.67;;;2.90;99.90;;;;;;5071499;28;20449;-85
2023/03/11 07:51:02;;;;;;;0.80;0.70;;;2.60;99.90;;;;;;5057638;28;20438;-70
2023/03/11 07:53:29;;;;;;;0.80;0.60;;;2.40;99.90;;;;;;5070998;28;20553;-84
2023/03/11 07:55:58;;;;;;;3.13;0.83;;;2.60;99.90;;;;;;5070675;28;20434;-84
2023/03/11 07:58:26;;;;;;;1.23;0.70;;;2.50;99.90;;;;;;5071162;28;20504;-85
2023/03/11 08:00:55;;;;;;;2.30;0.60;;;2.30;99.90;;;;;;5071207;28;20438;-84
2023/03/11 08:03:23;;;;;;;1.17;0.70;;;2.40;99.90;;;;;;5071291;28;20452;-86
2023/03/11 08:05:50;;;;;;;0.80;0.70;;;2.60;99.90;;;;;;5070709;28;20444;-83
2023/03/11 08:08:16;;;;;;;1.83;1.10;;;2.80;99.90;;;;;;5071151;28;20492;-83
2023/03/11 08:10:43;;;;;;;5.33;0.70;;;2.80;99.90;;;;;;5071454;28;20449;-81
2023/03/11 08:13:11;;;;;;;0.93;0.80;;;2.70;99.90;;;;;;5070707;28;20787;-85
2023/03/11 08:15:38;;;;;;;3.03;1.60;;;2.70;99.90;;;;;;5070421;28;20473;-85
2023/03/11 08:18:05;;;;;;;1.60;1.03;;;2.70;99.90;;;;;;5070211;28;20473;-86
2023/03/11 08:20:32;;;;;;;0.87;0.60;;;2.60;99.90;;;;;;5071101;28;20799;-85
2023/03/11 08:22:59;;;;;;;1.57;1.00;;;2.70;99.90;;;;;;5070310;28;20441;-84
2023/03/11 08:25:26;;;;;;;4.10;1.50;;;2.70;99.90;;;;;;5071757;28;20741;-85
2023/03/11 08:27:53;;;;;;;2.40;1.13;;;2.80;99.90;;;;;;5074286;28;20759;-84
2023/03/11 08:30:22;;;;;;;0.73;0.57;;;3.10;99.90;;;;;;5074811;28;20449;-84
2023/03/11 08:32:49;;;;;;;1.20;0.90;;;3.20;99.90;;;;;;5073600;28;20451;-83
2023/03/11 08:35:17;;;;;;;1.53;1.30;;;3.00;99.90;;;;;;5074370;28;20441;-85
2023/03/11 08:37:43;;;;;;;2.43;0.70;;;3.20;99.90;;;;;;5073852;28;20441;-82
2023/03/11 08:40:11;;;;;;;0.60;0.50;;;3.20;99.90;;;;;;5074076;28;20436;-85
2023/03/11 08:42:38;;;;;;;1.00;0.77;;;3.40;99.90;;;;;;5074828;28;20821;-83
2023/03/11 08:45:06;;;;;;;1.10;0.83;;;3.50;99.90;;;;;;5073701;28;20476;-85
2023/03/11 08:47:36;;;;;;;3.70;0.90;;;3.30;99.90;;;;;;5075000;28;20499;-86
2023/03/11 08:50:03;;;;;;;0.80;0.60;;;3.40;99.90;;;;;;5074150;28;20920;-87
2023/03/11 08:52:30;;;;;;;1.17;0.90;;;3.20;99.90;;;;;;5074650;28;20926;-84
2023/03/11 08:54:57;;;;;;;4.87;1.00;;;3.50;99.90;;;;;;5073860;28;20452;-85
2023/03/11 08:57:24;;;;;;;0.70;0.50;;;3.80;99.90;;;;;;5074180;28;20435;-85
2023/03/11 08:59:50;;;;;;;0.97;0.87;;;3.80;99.90;;;;;;5073953;28;20491;-73
2023/03/11 09:02:17;;;;;;;1.53;0.80;;;4.00;99.90;;;;;;5073952;28;20441;-84
2023/03/11 09:04:45;;;;;;;4.23;2.00;;;3.90;99.90;;;;;;5074382;28;20909;-82
2023/03/11 09:07:14;;;;;;;0.97;0.70;;;4.00;99.90;;;;;;5073592;28;20446;-85
2023/03/11 09:09:40;;;;;;;4.63;1.00;;;3.60;99.90;;;;;;5074445;28;20440;-85
2023/03/11 09:12:08;;;;;;;6.00;0.70;;;3.70;99.90;;;;;;5060495;28;20445;-82
2023/03/11 09:14:36;;;;;;;7.43;1.00;;;3.80;99.90;;;;;;5074036;28;20860;-82
2023/03/11 09:17:03;;;;;;;1.90;0.60;;;3.90;99.90;;;;;;5074001;28;20450;-87
2023/03/11 09:19:30;;;;;;;1.70;1.27;;;4.00;99.90;;;;;;5073924;28;20491;-85
2023/03/11 09:21:59;;;;;;;4.43;1.10;;;4.10;99.90;;;;;;5072367;28;20441;-86
2023/03/11 09:24:27;;;;;;;0.80;0.63;;;3.90;99.90;;;;;;5074064;28;20444;-88
2023/03/11 09:26:53;;;;;;;2.30;1.67;;;3.90;99.90;;;;;;5073565;28;20448;-82
2023/03/11 09:29:20;;;;;;;9.90;1.20;;;4.10;99.90;;;;;;5073550;28;20449;-81
2023/03/11 09:31:48;;;;;;;0.60;0.50;;;4.10;99.90;;;;;;5073611;28;20924;-81
2023/03/11 09:34:15;;;;;;;1.30;0.60;;;3.80;99.90;;;;;;5072591;28;20452;-76
2023/03/11 09:36:42;;;;;;;5.00;1.27;;;4.10;99.90;;;;;;5072839;28;20996;-78
2023/03/11 09:39:11;;;;;;;3.30;0.80;;;4.30;99.90;;;;;;5072650;28;21002;-77
2023/03/11 09:41:42;;;;;;;1.43;0.77;;;;;;;;;;5073137;28;20990;-77
2023/03/11 09:44:16;;;;;;;2.73;0.97;;;;;;;;;;5073020;28;20844;-85
2023/03/11 09:47:00;;;;;;;1.23;0.60;;;;;;;;;;5073254;28;20483;-82
2023/03/11 09:49:32;;;;;;;2.23;2.13;;;;;;;;;;5071931;28;20956;-79
2023/03/11 09:52:04;;;;;;;0.70;0.50;;;;;;;;;;5072265;28;20447;-83
2023/03/11 09:54:39;;;;;;;2.27;0.70;;;;;;;;;;5072461;28;20531;-83
2023/03/11 09:57:07;;;;;;;0.90;0.60;;;;;;;;;;5072743;28;20429;-82
2023/03/11 09:59:37;;;;;;;1.60;1.03;;;;;;;;;;5073217;28;20485;-83
2023/03/11 10:02:05;;;;;;;0.80;0.50;;;;;;;;;;5072766;28;20826;-84
2023/03/11 10:04:34;;;;;;;1.80;0.80;;;;;;;;;;5072265;28;20438;-83
2023/03/11 10:07:03;;;;;;;0.90;0.70;;;;;;;;;;5072477;28;20441;-89
2023/03/11 10:09:36;;;;;;;9.53;0.87;;;;;;;;;;5074361;28;20433;-87
2023/03/11 10:12:11;;;;;;;1.40;0.87;;;;;;;;;;5072329;28;20764;-77
2023/03/11 10:14:46;;;;;;;0.63;0.60;;;;;;;;;;5072153;28;20449;-81
2023/03/11 10:17:17;;;;;;;1.50;0.90;;;;;;;;;;5072277;28;20433;-79
2023/03/11 10:19:48;;;;;;;1.20;0.83;;;;;;;;;;5072688;28;20458;-79
2023/03/11 10:22:22;;;;;;;3.40;1.00;;;;;;;;;;5071071;28;20952;-76
2023/03/11 10:24:57;;;;;;;0.97;0.70;;;;;;;;;;5071209;28;20437;-75
2023/03/11 10:27:29;;;;;;;1.63;0.67;;;;;;;;;;5072407;28;20528;-79
2023/03/11 10:30:00;;;;;;;0.90;0.70;;;;;;;;;;5071593;28;20449;-79
2023/03/11 10:32:33;;;;;;;0.87;0.83;;;;;;;;;;5071784;28;20430;-80
2023/03/11 10:35:04;;;;;;;0.70;0.50;;;;;;;;;;5071713;28;20446;-86
2023/03/11 10:37:33;;;;;;;0.80;0.67;;;;;;;;;;5071451;28;20440;-85
2023/03/11 10:40:05;;;;;;;4.20;1.87;;;;;;;;;;5069839;28;21005;-82
2023/03/11 10:42:33;;;;;;;1.17;0.80;;;;;;;;;;5070902;28;20433;-75
2023/03/11 10:45:00;;;;;;;0.80;0.70;;;;;;;;;;5070078;28;20555;-76
2023/03/11 10:47:29;;;;;;;1.67;0.60;;;;;;;;;;5072189;28;20519;-77
2023/03/11 10:49:56;;;;;;;0.80;0.47;;;;;;;;;;5070277;28;20920;-78
2023/03/11 10:52:24;;;;;;;2.60;0.83;;;;;;;;;;5071825;28;20461;-76
2023/03/11 10:55:00;;;;;;;1.17;0.70;;;;;;;;;;5069762;28;20445;-80
2023/03/11 10:57:29;;;;;;;0.90;0.60;;;;;;;;;;5070310;28;20440;-79
2023/03/11 10:59:57;;;;;;;2.40;0.80;;;;;;;;;;5070792;28;20473;-77
2023/03/11 11:02:27;;;;;;;3.53;1.07;;;;;;;;;;5070708;28;20438;-73
2023/03/11 11:05:21;;;;;;;1.13;0.87;;;;;;;;;;5068158;28;20459;-76
2023/03/11 11:07:49;;;;;;;1.57;1.17;;;;;;;;;;5065645;28;20446;-71
2023/03/11 11:10:18;;;;;;;0.77;0.50;;;;;;;;;;5069155;28;20540;-76
2023/03/11 11:12:57;;;;;;;0.67;0.50;;;;;;;;;;5069099;28;20950;-75
2023/03/11 11:15:26;;;;;;;1.57;0.73;;;;;;;;;;5069124;28;20472;-75
2023/03/11 11:17:54;;;;;;;2.10;0.50;;;;;;;;;;5068613;28;20468;-76
2023/03/11 11:20:23;;;;;;;1.70;0.90;;;;;;;;;;5068586;28;20469;-76
2023/03/11 11:22:52;;;;;;;5.90;0.63;;;;;;;;;;5063243;28;20477;-76
2023/03/11 11:25:26;;;;;;;0.70;0.50;;;;;;;;;;5067465;28;20484;-75
2023/03/11 11:27:59;;;;;;;1.83;1.73;;;;;;;;;;5068376;28;20449;-76
2023/03/11 11:30:27;;;;;;;3.10;1.00;;;;;;;;;;5069002;28;20460;-76
2023/03/11 11:32:54;;;;;;;1.00;0.80;;;;;;;;;;5067939;28;20442;-76
2023/03/11 11:35:22;;;;;;;2.00;0.60;;;;;;;;;;5068561;28;20824;-78
2023/03/11 11:37:50;;;;;;;1.50;0.80;;;;;;;;;;5067196;28;20445;-75
2023/03/11 11:40:24;;;;;;;1.83;0.70;;;;;;;;;;5068816;28;20473;-80
2023/03/11 11:42:53;;;;;;;2.30;1.07;;;;;;;;;;5068051;28;20795;-74
2023/03/11 11:45:25;;;;;;;0.93;0.50;;;;;;;;;;5068249;28;20469;-78
2023/03/11 11:47:53;;;;;;;1.10;0.87;;;;;;;;;;5068291;28;20439;-77
2023/03/11 11:50:24;;;;;;;0.70;0.60;;;;;;;;;;5068117;28;20457;-78
2023/03/11 11:52:54;;;;;;;1.07;0.80;;;;;;;;;;5067179;28;20461;-72
2023/03/11 11:55:23;;;;;;;1.00;0.60;;;;;;;;;;5067953;28;20457;-81
2023/03/11 11:57:51;;;;;;;0.70;0.60;;;;;;;;;;5067963;28;20434;-75
2023/03/11 12:00:19;;;;;;;4.77;1.87;;;;;;;;;;5071082;28;20472;-74
2023/03/11 12:02:55;;;;;;;0.90;0.80;;;;;;;;;;5075290;28;20855;-76
2023/03/11 12:05:26;;;;;;;4.40;0.60;;;;;;;;;;5074443;28;20429;-77
2023/03/11 12:08:05;;;;;;;2.20;0.80;;;;;;;;;;5072315;28;20453;-76
2023/03/11 12:10:34;;;;;;;0.67;0.63;;;;;;;;;;5070714;28;20783;-78
2023/03/11 12:13:15;;;;;;;1.27;0.90;;;;;;;;;;5074365;28;20441;-79
2023/03/11 12:15:43;;;;;;;0.93;0.60;;;;;;;;;;5075575;28;20468;-78
2023/03/11 12:18:16;;;;;;;1.13;0.90;;;;;;;;;;5074797;28;20444;-79
2023/03/11 12:20:44;;;;;;;1.57;0.67;;;;;;;;;;5075457;28;20472;-80
2023/03/11 12:23:18;;;;;;;0.60;0.50;;;;;;;;;;5074195;28;20453;-79
2023/03/11 12:25:53;;;;;;;1.93;0.90;;;;;;;;;;5075170;28;20441;-79
2023/03/11 12:28:24;;;;;;;1.63;0.80;;;;;;;;;;5075125;28;20444;-79
2023/03/11 12:30:53;;;;;;;1.20;0.63;;;;;;;;;;5074429;28;20456;-80
2023/03/11 12:33:25;;;;;;;0.80;0.67;;;;;;;;;;5075068;28;20502;-82
2023/03/11 12:35:54;;;;;;;1.67;1.07;;;;;;;;;;5074200;28;20440;-81
2023/03/11 12:38:26;;;;;;;1.93;0.90;;;;;;;;;;5069758;28;20433;-81
2023/03/11 12:40:58;;;;;;;1.10;0.97;;;;;;;;;;5074327;28;20473;-81
2023/03/11 12:43:28;;;;;;;2.03;0.60;;;;;;;;;;5074957;28;20440;-80
2023/03/11 12:45:58;;;;;;;0.90;0.80;;;;;;;;;;5074238;28;20481;-80
2023/03/11 12:48:32;;;;;;;6.53;1.03;;;;;;;;;;5074959;28;20449;-72
2023/03/11 12:51:00;;;;;;;6.73;0.93;;;;;;;;;;5073857;28;20451;-77
2023/03/11 12:53:42;;;;;;;5.03;1.10;;;;;;;;;;5073659;28;20463;-80
2023/03/11 12:56:14;;;;;;;0.63;0.47;;;;;;;;;;5062783;28;20971;-80
2023/03/11 12:58:50;;;;;;;1.50;0.70;;;;;;;;;;5074599;28;20426;-79
2023/03/11 13:01:26;;;;;;;0.60;0.60;;;;;;;;;;5063299;28;20913;-79
2023/03/11 13:04:02;;;;;;;1.33;0.87;;;;;;;;;;5073261;28;20837;-79
2023/03/11 13:06:47;;;;;;;0.87;0.60;;;;;;;;;;5072324;28;20934;-79
2023/03/11 13:09:14;;;;;;;0.77;0.60;;;;;;;;;;5074603;28;20481;-76
2023/03/11 13:11:43;;;;;;;3.03;0.60;;;;;;;;;;5072070;28;20441;-79
2023/03/11 13:14:15;;;;;;;0.70;0.60;;;;;;;;;;5069698;28;20759;-78
2023/03/11 13:16:42;;;;;;;0.90;0.60;;;;;;;;;;5070507;28;20453;-78
2023/03/11 13:19:28;;;;;;;5.37;0.87;;;;;;;;;;5070512;28;20532;-80
2023/03/11 13:21:58;;;;;;;3.00;0.70;;;;;;;;;;5069963;28;20449;-80
2023/03/11 13:24:41;;;;;;;0.73;0.73;;;;;;;;;;5069907;28;20444;-78
2023/03/11 13:27:12;;;;;;;0.80;0.60;;;;;;;;;;5070761;28;20828;-78
2023/03/11 13:29:50;;;;;;;1.30;0.80;;;;;;;;;;5070522;28;20810;-78
2023/03/11 13:32:26;;;;;;;0.83;0.70;;;;;;;;;;5071127;28;20441;-78
2023/03/11 13:34:59;;;;;;;2.40;1.10;;;;;;;;;;5069334;28;20452;-77